ADDS TAF Data INFO
IDs: Format: Raw Decoded Include METARs

Data at: 0350 UTC 17 Jul 2018

KPGA 170253Z AUTO 27003KT 10SM CLR 33/12 A3004 RMK AO2 SLP096 T03280122 53003 TSNO

KPGA 162320Z 1700/1724 VRB05KT P6SM SCT120